Mckinley Sea — WDE5024 — position and weather

sailwx.info

Track history (hours):
 
Tides and Currents Weather Stations Pressure Air Temp Water Temp Dewpoint Dewpoint Depression Visibility Wind Speed Wind Dir Waves Ship Positions

Mckinley Sea

Owner: Kirby Offshore Marine, LLC, Staten Island, NY. More information available from US FCC via Universal Licensing System and Coast Guard Vessel Documentation Center.

Last reported at 2015-Jul-31 00:33 UTC. Time now 2015-Jul-31 01:06 UTC.
Position N 40°35' W 074°13'.

Length 46 m; draft 7 m.

Type: Towing. MMSI: 367360980.

Date/timePositionNaut miles runAvg speedWind from/ knotsBaromVisibWave heightAir tempDewpointWater temp
2015-Jul-31 00:33N 40°35' W 074°13'0 0.0
2015-Jul-30 23:34N 40°35' W 074°13'0 0.0
2015-Jul-30 22:33N 40°35' W 074°13'0 0.0
2015-Jul-30 21:34N 40°35' W 074°13'0 0.0
2015-Jul-30 20:33N 40°35' W 074°13'0 0.0
2015-Jul-30 19:33N 40°35' W 074°13'0 0.2
2015-Jul-30 18:33N 40°35' W 074°13'2 1.5
2015-Jul-30 17:31N 40°37' W 074°12'5 5.5
2015-Jul-30 16:34N 40°39' W 074°06'3 3.2
2015-Jul-30 15:33N 40°40' W 074°02'4 3.5
2015-Jul-30 14:33N 40°39' W 074°06'3 2.7
2015-Jul-30 13:33N 40°39' W 074°10'0 0.0
2015-Jul-30 12:34N 40°39' W 074°10'0 0.0
2015-Jul-30 11:33N 40°39' W 074°10'0 0.0
2015-Jul-30 10:33N 40°39' W 074°10'6 5.6
2015-Jul-30 09:33N 40°40' W 074°03'3 3.0
2015-Jul-30 08:33N 40°39' W 074°07'0 0.0
2015-Jul-30 07:33N 40°39' W 074°07'0 0.0
2015-Jul-30 06:33N 40°39' W 074°07'0 0.0
2015-Jul-30 05:34N 40°39' W 074°07'0 0.0
2015-Jul-30 04:34N 40°39' W 074°07'0 0.0
2015-Jul-30 03:33N 40°39' W 074°07'3 3.3
2015-Jul-30 02:34N 40°40' W 074°03'1 0.5
2015-Jul-30 01:33N 40°40' W 074°02'1 0.9
2015-Jul-30 00:33N 40°40' W 074°03'10 9.5
2015-Jul-29 23:33N 40°31' W 073°59'9 8.9
2015-Jul-29 22:33N 40°30' W 073°47'9 8.9
2015-Jul-29 21:33N 40°31' W 073°35'19 9.3
2015-Jul-29 19:32N 40°35' W 073°11'9 9.5
2015-Jul-29 18:34N 40°38' W 072°60'11 9.9
2015-Jul-29 17:27N 40°42' W 072°46'9 9.9
2015-Jul-29 16:33N 40°45' W 072°35'10 9.8
2015-Jul-29 15:34N 40°49' W 072°23'1111.0
2015-Jul-29 14:33N 40°54' W 072°10'1111.0
2015-Jul-29 13:34N 40°58' W 071°57'8 8.3
2015-Jul-29 12:33N 41°01' W 071°47'9 9.0
2015-Jul-29 11:33N 41°05' W 071°36'10 9.7
2015-Jul-29 10:34N 41°09' W 071°24'9 9.4
2015-Jul-29 09:33N 41°16' W 071°15'9 9.5
2015-Jul-29 08:34N 41°23' W 071°08'9 8.9
2015-Jul-29 07:34N 41°28' W 070°58'9 9.1
2015-Jul-29 06:33N 41°32' W 070°47'9 9.0
2015-Jul-29 05:33N 41°40' W 070°41'12 9.1
2015-Jul-29 04:12N 41°48' W 070°28'6 8.9
2015-Jul-29 03:29N 41°54' W 070°28'8 8.9
2015-Jul-29 02:33N 42°02' W 070°29'31 7.5
2015-Jul-28 22:23N 42°21' W 071°02'3 0.3
2015-Jul-28 12:28N 42°24' W 071°01'0 0.0
2015-Jul-28 11:13N 42°24' W 071°01'4 0.8
2015-Jul-28 06:18N 42°20' W 070°59'13 7.4
2015-Jul-28 04:29N 42°28' W 070°45'  
2015-Jul-24 12:10N 41°34' W 070°43'3 5.4
2015-Jul-24 11:34N 41°32' W 070°47'5 5.3
2015-Jul-24 10:34N 41°30' W 070°53'5 5.3
2015-Jul-24 09:33N 41°27' W 070°59'6 6.5
2015-Jul-24 08:33N 41°23' W 071°06'7 6.7
2015-Jul-24 07:33N 41°18' W 071°11'7 6.8
2015-Jul-24 06:34N 41°12' W 071°17'7 6.5
2015-Jul-24 05:34N 41°09' W 071°24'7 6.5
2015-Jul-24 04:34N 41°06' W 071°32'7 6.5
2015-Jul-24 03:34N 41°03' W 071°40'6 6.4
2015-Jul-24 02:34N 41°01' W 071°48'7 6.6
2015-Jul-24 01:34N 40°58' W 071°55'7 6.6
2015-Jul-24 00:33N 40°55' W 072°03'6 6.5
2015-Jul-23 23:34N 40°52' W 072°11'6 6.3
2015-Jul-23 22:33N 40°49' W 072°18'7 6.6
2015-Jul-23 21:34N 40°47' W 072°27'7 7.1
2015-Jul-23 20:34N 40°45' W 072°35'7 7.0
2015-Jul-23 19:33N 40°42' W 072°44'7 7.0
2015-Jul-23 18:34N 40°40' W 072°53'7 7.0
2015-Jul-23 17:33N 40°38' W 073°02'7 6.9
2015-Jul-23 16:32N 40°36' W 073°11'7 6.9
2015-Jul-23 15:32N 40°34' W 073°19'7 6.8
2015-Jul-23 14:33N 40°32' W 073°28'7 6.8
2015-Jul-23 13:33N 40°31' W 073°37'7 6.9
2015-Jul-23 12:32N 40°29' W 073°45'7 7.1
2015-Jul-23 11:33N 40°27' W 073°54'7 6.6
2015-Jul-23 10:31N 40°29' W 074°03'7 6.8
2015-Jul-23 09:32N 40°30' W 074°11'4 1.8
2015-Jul-23 07:31N 40°33' W 074°15'0 0.0
2015-Jul-23 03:29N 40°33' W 074°15'5 5.3
2015-Jul-23 02:34N 40°37' W 074°12'2 2.3
2015-Jul-23 01:34N 40°39' W 074°10'0 0.0
2015-Jul-23 00:33N 40°39' W 074°10'0 0.0
2015-Jul-22 23:33N 40°39' W 074°10'0 0.3
2015-Jul-22 22:33N 40°39' W 074°10'7 6.9
2015-Jul-22 21:33N 40°33' W 074°15'0 0.0
2015-Jul-22 15:33N 40°33' W 074°15'7 7.2
2015-Jul-22 14:34N 40°39' W 074°10'3 2.6
2015-Jul-22 13:33N 40°39' W 074°07'0 0.0
2015-Jul-22 12:33N 40°39' W 074°07'0 0.0
2015-Jul-22 11:34N 40°39' W 074°07'4 4.1
2015-Jul-22 10:33N 40°38' W 074°12'6 1.3
2015-Jul-22 06:06N 40°33' W 074°15'4 2.3
2015-Jul-22 04:33N 40°35' W 074°12'6 6.4
2015-Jul-22 03:34N 40°39' W 074°05'7 7.0
2015-Jul-22 02:33N 40°43' W 073°58'6 5.8
2015-Jul-22 01:32N 40°48' W 073°54'10 7.3
2015-Jul-22 00:06N 40°54' W 073°42'5 8.4
2015-Jul-21 23:33N 40°56' W 073°36'8 8.4
2015-Jul-21 22:33N 40°60' W 073°27'8 8.5
2015-Jul-21 21:33N 41°01' W 073°16'9 8.8
2015-Jul-21 20:34N 41°02' W 073°04'9 9.2
2015-Jul-21 19:34N 41°05' W 072°52'10 9.5
2015-Jul-21 18:34N 41°07' W 072°40'1010.4
2015-Jul-21 17:34N 41°10' W 072°27'1110.8
2015-Jul-21 16:34N 41°13' W 072°13'1010.1
2015-Jul-21 15:33N 41°14' W 071°60'10 9.9
2015-Jul-21 14:33N 41°16' W 071°47'9 9.4
2015-Jul-21 13:34N 41°18' W 071°35'8 7.8
2015-Jul-21 12:33N 41°22' W 071°26'9 9.0
2015-Jul-21 11:33N 41°30' W 071°21'9 8.8
2015-Jul-21 10:33N 41°39' W 071°19'8 8.5
2015-Jul-21 09:34N 41°47' W 071°22'1 1.5
2015-Jul-21 08:33N 41°48' W 071°24'0 0.0
2015-Jul-21 07:32N 41°48' W 071°24'0 0.0
2015-Jul-21 06:33N 41°48' W 071°24'0 0.0
2015-Jul-21 05:34N 41°48' W 071°24'0 0.0
2015-Jul-21 04:33N 41°48' W 071°24'0 0.0
2015-Jul-21 03:34N 41°48' W 071°24'0 0.0
2015-Jul-21 02:33N 41°48' W 071°24'0 0.0
2015-Jul-21 01:33N 41°48' W 071°24'  
Track history (hours):
 
Tides and Currents Weather Stations Pressure Air Temp Water Temp Dewpoint Dewpoint Depression Visibility Wind Speed Wind Dir Waves Ship Positions

Mckinley Sea

Owner: Kirby Offshore Marine, LLC, Staten Island, NY. More information available from US FCC via Universal Licensing System and Coast Guard Vessel Documentation Center.

Last reported at 2015-Jul-31 00:33 UTC. Time now 2015-Jul-31 01:06 UTC.
Position N 40°35' W 074°13'.

Length 46 m; draft 7 m.

Type: Towing. MMSI: 367360980.

Date/timePositionNaut miles runAvg speedWind from/ knotsBaromVisibWave heightAir tempDewpointWater temp
2015-Jul-31 00:33N 40°35' W 074°13'0 0.0
2015-Jul-30 23:34N 40°35' W 074°13'0 0.0
2015-Jul-30 22:33N 40°35' W 074°13'0 0.0
2015-Jul-30 21:34N 40°35' W 074°13'0 0.0
2015-Jul-30 20:33N 40°35' W 074°13'0 0.0
2015-Jul-30 19:33N 40°35' W 074°13'0 0.2
2015-Jul-30 18:33N 40°35' W 074°13'2 1.5
2015-Jul-30 17:31N 40°37' W 074°12'5 5.5
2015-Jul-30 16:34N 40°39' W 074°06'3 3.2
2015-Jul-30 15:33N 40°40' W 074°02'4 3.5
2015-Jul-30 14:33N 40°39' W 074°06'3 2.7
2015-Jul-30 13:33N 40°39' W 074°10'0 0.0
2015-Jul-30 12:34N 40°39' W 074°10'0 0.0
2015-Jul-30 11:33N 40°39' W 074°10'0 0.0
2015-Jul-30 10:33N 40°39' W 074°10'6 5.6
2015-Jul-30 09:33N 40°40' W 074°03'3 3.0
2015-Jul-30 08:33N 40°39' W 074°07'0 0.0
2015-Jul-30 07:33N 40°39' W 074°07'0 0.0
2015-Jul-30 06:33N 40°39' W 074°07'0 0.0
2015-Jul-30 05:34N 40°39' W 074°07'0 0.0
2015-Jul-30 04:34N 40°39' W 074°07'0 0.0
2015-Jul-30 03:33N 40°39' W 074°07'3 3.3
2015-Jul-30 02:34N 40°40' W 074°03'1 0.5
2015-Jul-30 01:33N 40°40' W 074°02'1 0.9
2015-Jul-30 00:33N 40°40' W 074°03'10 9.5
2015-Jul-29 23:33N 40°31' W 073°59'9 8.9
2015-Jul-29 22:33N 40°30' W 073°47'9 8.9
2015-Jul-29 21:33N 40°31' W 073°35'19 9.3
2015-Jul-29 19:32N 40°35' W 073°11'9 9.5
2015-Jul-29 18:34N 40°38' W 072°60'11 9.9
2015-Jul-29 17:27N 40°42' W 072°46'9 9.9
2015-Jul-29 16:33N 40°45' W 072°35'10 9.8
2015-Jul-29 15:34N 40°49' W 072°23'1111.0
2015-Jul-29 14:33N 40°54' W 072°10'1111.0
2015-Jul-29 13:34N 40°58' W 071°57'8 8.3
2015-Jul-29 12:33N 41°01' W 071°47'9 9.0
2015-Jul-29 11:33N 41°05' W 071°36'10 9.7
2015-Jul-29 10:34N 41°09' W 071°24'9 9.4
2015-Jul-29 09:33N 41°16' W 071°15'9 9.5
2015-Jul-29 08:34N 41°23' W 071°08'9 8.9
2015-Jul-29 07:34N 41°28' W 070°58'9 9.1
2015-Jul-29 06:33N 41°32' W 070°47'9 9.0
2015-Jul-29 05:33N 41°40' W 070°41'12 9.1
2015-Jul-29 04:12N 41°48' W 070°28'6 8.9
2015-Jul-29 03:29N 41°54' W 070°28'8 8.9
2015-Jul-29 02:33N 42°02' W 070°29'31 7.5
2015-Jul-28 22:23N 42°21' W 071°02'3 0.3
2015-Jul-28 12:28N 42°24' W 071°01'0 0.0
2015-Jul-28 11:13N 42°24' W 071°01'4 0.8
2015-Jul-28 06:18N 42°20' W 070°59'13 7.4
2015-Jul-28 04:29N 42°28' W 070°45'  
2015-Jul-24 12:10N 41°34' W 070°43'3 5.4
2015-Jul-24 11:34N 41°32' W 070°47'5 5.3
2015-Jul-24 10:34N 41°30' W 070°53'5 5.3
2015-Jul-24 09:33N 41°27' W 070°59'6 6.5
2015-Jul-24 08:33N 41°23' W 071°06'7 6.7
2015-Jul-24 07:33N 41°18' W 071°11'7 6.8
2015-Jul-24 06:34N 41°12' W 071°17'7 6.5
2015-Jul-24 05:34N 41°09' W 071°24'7 6.5
2015-Jul-24 04:34N 41°06' W 071°32'7 6.5
2015-Jul-24 03:34N 41°03' W 071°40'6 6.4
2015-Jul-24 02:34N 41°01' W 071°48'7 6.6
2015-Jul-24 01:34N 40°58' W 071°55'7 6.6
2015-Jul-24 00:33N 40°55' W 072°03'6 6.5
2015-Jul-23 23:34N 40°52' W 072°11'6 6.3
2015-Jul-23 22:33N 40°49' W 072°18'7 6.6
2015-Jul-23 21:34N 40°47' W 072°27'7 7.1
2015-Jul-23 20:34N 40°45' W 072°35'7 7.0
2015-Jul-23 19:33N 40°42' W 072°44'7 7.0
2015-Jul-23 18:34N 40°40' W 072°53'7 7.0
2015-Jul-23 17:33N 40°38' W 073°02'7 6.9
2015-Jul-23 16:32N 40°36' W 073°11'7 6.9
2015-Jul-23 15:32N 40°34' W 073°19'7 6.8
2015-Jul-23 14:33N 40°32' W 073°28'7 6.8
2015-Jul-23 13:33N 40°31' W 073°37'7 6.9
2015-Jul-23 12:32N 40°29' W 073°45'7 7.1
2015-Jul-23 11:33N 40°27' W 073°54'7 6.6
2015-Jul-23 10:31N 40°29' W 074°03'7 6.8
2015-Jul-23 09:32N 40°30' W 074°11'4 1.8
2015-Jul-23 07:31N 40°33' W 074°15'0 0.0
2015-Jul-23 03:29N 40°33' W 074°15'5 5.3
2015-Jul-23 02:34N 40°37' W 074°12'2 2.3
2015-Jul-23 01:34N 40°39' W 074°10'0 0.0
2015-Jul-23 00:33N 40°39' W 074°10'0 0.0
2015-Jul-22 23:33N 40°39' W 074°10'0 0.3
2015-Jul-22 22:33N 40°39' W 074°10'7 6.9
2015-Jul-22 21:33N 40°33' W 074°15'0 0.0
2015-Jul-22 15:33N 40°33' W 074°15'7 7.2
2015-Jul-22 14:34N 40°39' W 074°10'3 2.6
2015-Jul-22 13:33N 40°39' W 074°07'0 0.0
2015-Jul-22 12:33N 40°39' W 074°07'0 0.0
2015-Jul-22 11:34N 40°39' W 074°07'4 4.1
2015-Jul-22 10:33N 40°38' W 074°12'6 1.3
2015-Jul-22 06:06N 40°33' W 074°15'4 2.3
2015-Jul-22 04:33N 40°35' W 074°12'6 6.4
2015-Jul-22 03:34N 40°39' W 074°05'7 7.0
2015-Jul-22 02:33N 40°43' W 073°58'6 5.8
2015-Jul-22 01:32N 40°48' W 073°54'10 7.3
2015-Jul-22 00:06N 40°54' W 073°42'5 8.4
2015-Jul-21 23:33N 40°56' W 073°36'8 8.4
2015-Jul-21 22:33N 40°60' W 073°27'8 8.5
2015-Jul-21 21:33N 41°01' W 073°16'9 8.8
2015-Jul-21 20:34N 41°02' W 073°04'9 9.2
2015-Jul-21 19:34N 41°05' W 072°52'10 9.5
2015-Jul-21 18:34N 41°07' W 072°40'1010.4
2015-Jul-21 17:34N 41°10' W 072°27'1110.8
2015-Jul-21 16:34N 41°13' W 072°13'1010.1
2015-Jul-21 15:33N 41°14' W 071°60'10 9.9
2015-Jul-21 14:33N 41°16' W 071°47'9 9.4
2015-Jul-21 13:34N 41°18' W 071°35'8 7.8
2015-Jul-21 12:33N 41°22' W 071°26'9 9.0
2015-Jul-21 11:33N 41°30' W 071°21'9 8.8
2015-Jul-21 10:33N 41°39' W 071°19'8 8.5
2015-Jul-21 09:34N 41°47' W 071°22'1 1.5
2015-Jul-21 08:33N 41°48' W 071°24'0 0.0
2015-Jul-21 07:32N 41°48' W 071°24'0 0.0
2015-Jul-21 06:33N 41°48' W 071°24'0 0.0
2015-Jul-21 05:34N 41°48' W 071°24'0 0.0
2015-Jul-21 04:33N 41°48' W 071°24'0 0.0
2015-Jul-21 03:34N 41°48' W 071°24'0 0.0
2015-Jul-21 02:33N 41°48' W 071°24'0 0.0
2015-Jul-21 01:33N 41°48' W 071°24'  

Dump ship's entire track history